sensor_id;sensor_type;location;lat;lon;timestamp;pressure;altitude;pressure_sealevel;temperature;humidity
77279;BME280;66332;50.436;15.378;2023-05-10T04:01:18;97978.59;;;8.46;63.16
77279;BME280;66332;50.436;15.378;2023-05-10T04:06:00;97966.03;;;8.41;63.38
77279;BME280;66332;50.436;15.378;2023-05-10T04:10:41;97975.91;;;8.62;62.85
77279;BME280;66332;50.436;15.378;2023-05-10T04:15:23;97979.09;;;8.72;62.77
77279;BME280;66332;50.436;15.378;2023-05-10T04:20:04;97980.53;;;8.83;62.78
77279;BME280;66332;50.436;15.378;2023-05-10T04:24:45;97968.41;;;9.05;61.94
77279;BME280;66332;50.436;15.378;2023-05-10T04:29:26;97971.78;;;9.14;61.61
77279;BME280;66332;50.436;15.378;2023-05-10T04:34:07;97949.22;;;9.05;61.18
77279;BME280;66332;50.436;15.378;2023-05-10T04:38:48;97970.41;;;9.41;60.91
77279;BME280;66332;50.436;15.378;2023-05-10T04:43:29;97977.03;;;9.67;60.12
77279;BME280;66332;50.436;15.378;2023-05-10T04:48:10;97965.81;;;9.73;59.47
77279;BME280;66332;50.436;15.378;2023-05-10T04:52:51;97953.25;;;9.83;59.25
77279;BME280;66332;50.436;15.378;2023-05-10T04:57:32;97973.03;;;10.15;59.27
77279;BME280;66332;50.436;15.378;2023-05-10T05:02:13;97969.78;;;10.28;58.92
77279;BME280;66332;50.436;15.378;2023-05-10T05:06:54;97966.41;;;10.49;58.12
77279;BME280;66332;50.436;15.378;2023-05-10T05:11:34;97937.13;;;10.52;57.69
77279;BME280;66332;50.436;15.378;2023-05-10T05:16:15;97944.41;;;10.71;58.53
77279;BME280;66332;50.436;15.378;2023-05-10T05:20:56;97969.00;;;11.07;57.45
77279;BME280;66332;50.436;15.378;2023-05-10T05:25:37;97961.25;;;11.20;56.64
77279;BME280;66332;50.436;15.378;2023-05-10T05:30:23;97967.88;;;11.44;56.81
77279;BME280;66332;50.436;15.378;2023-05-10T05:35:04;97960.88;;;11.51;56.08
77279;BME280;66332;50.436;15.378;2023-05-10T05:39:45;97940.69;;;11.65;55.60
77279;BME280;66332;50.436;15.378;2023-05-10T05:44:26;97960.59;;;11.74;55.71
77279;BME280;66332;50.436;15.378;2023-05-10T05:49:09;97953.38;;;11.83;55.19
77279;BME280;66332;50.436;15.378;2023-05-10T05:53:53;97950.13;;;12.15;55.35
77279;BME280;66332;50.436;15.378;2023-05-10T05:58:37;97967.41;;;12.31;55.62
77279;BME280;66332;50.436;15.378;2023-05-10T06:03:29;97914.25;;;12.21;54.50
77279;BME280;66332;50.436;15.378;2023-05-10T06:08:23;97904.16;;;12.38;55.57
77279;BME280;66332;50.436;15.378;2023-05-10T06:13:15;97917.19;;;12.53;55.18
77279;BME280;66332;50.436;15.378;2023-05-10T06:17:56;97946.69;;;13.23;54.41
77279;BME280;66332;50.436;15.378;2023-05-10T06:22:38;97937.94;;;12.96;55.06
77279;BME280;66332;50.436;15.378;2023-05-10T06:27:20;97935.94;;;13.11;54.07
77279;BME280;66332;50.436;15.378;2023-05-10T06:32:03;97933.09;;;13.13;53.03
77279;BME280;66332;50.436;15.378;2023-05-10T06:36:44;97959.31;;;13.41;53.65
77279;BME280;66332;50.436;15.378;2023-05-10T06:41:25;97906.31;;;13.09;53.84
77279;BME280;66332;50.436;15.378;2023-05-10T06:46:12;97911.97;;;13.13;53.72
77279;BME280;66332;50.436;15.378;2023-05-10T06:50:55;97923.16;;;13.48;53.39
77279;BME280;66332;50.436;15.378;2023-05-10T06:55:39;97923.47;;;13.91;52.42
77279;BME280;66332;50.436;15.378;2023-05-10T07:00:24;97929.41;;;13.73;53.02
77279;BME280;66332;50.436;15.378;2023-05-10T07:05:08;97938.06;;;14.07;53.05
77279;BME280;66332;50.436;15.378;2023-05-10T07:09:49;97921.38;;;14.07;52.24
77279;BME280;66332;50.436;15.378;2023-05-10T07:14:45;97949.81;;;14.25;51.79
77279;BME280;66332;50.436;15.378;2023-05-10T07:19:26;97898.09;;;14.29;51.88
77279;BME280;66332;50.436;15.378;2023-05-10T07:24:07;97932.28;;;15.00;52.04
77279;BME280;66332;50.436;15.378;2023-05-10T07:28:48;97918.81;;;14.77;50.65
77279;BME280;66332;50.436;15.378;2023-05-10T07:33:29;97920.81;;;14.81;49.65
77279;BME280;66332;50.436;15.378;2023-05-10T07:38:10;97934.41;;;15.42;50.39
77279;BME280;66332;50.436;15.378;2023-05-10T07:42:51;97935.22;;;15.42;48.89
77279;BME280;66332;50.436;15.378;2023-05-10T07:47:35;97923.66;;;15.11;48.24
77279;BME280;66332;50.436;15.378;2023-05-10T07:52:16;97902.63;;;15.42;49.11
77279;BME280;66332;50.436;15.378;2023-05-10T07:56:57;97897.34;;;15.17;47.53
77279;BME280;66332;50.436;15.378;2023-05-10T08:01:40;97936.88;;;15.87;47.81
77279;BME280;66332;50.436;15.378;2023-05-10T08:06:21;97900.81;;;15.97;49.04
77279;BME280;66332;50.436;15.378;2023-05-10T08:11:03;97909.47;;;16.41;47.87
77279;BME280;66332;50.436;15.378;2023-05-10T08:15:44;97944.13;;;16.28;48.30
77279;BME280;66332;50.436;15.378;2023-05-10T08:20:28;97890.47;;;16.44;47.36
77279;BME280;66332;50.436;15.378;2023-05-10T08:25:09;97941.28;;;16.60;46.25
77279;BME280;66332;50.436;15.378;2023-05-10T08:29:50;97933.94;;;16.73;46.83
77279;BME280;66332;50.436;15.378;2023-05-10T08:34:36;97911.84;;;16.49;45.51
77279;BME280;66332;50.436;15.378;2023-05-10T08:39:17;97916.53;;;17.08;46.15
77279;BME280;66332;50.436;15.378;2023-05-10T08:43:59;97912.94;;;17.14;45.88
77279;BME280;66332;50.436;15.378;2023-05-10T08:48:45;97913.63;;;17.21;44.43
77279;BME280;66332;50.436;15.378;2023-05-10T08:53:29;97936.66;;;17.74;43.67
77279;BME280;66332;50.436;15.378;2023-05-10T08:58:11;97916.22;;;16.86;44.54
77279;BME280;66332;50.436;15.378;2023-05-10T09:02:52;97920.66;;;16.73;45.36
77279;BME280;66332;50.436;15.378;2023-05-10T09:07:34;97937.31;;;17.11;42.44
77279;BME280;66332;50.436;15.378;2023-05-10T09:12:15;97932.81;;;17.58;42.08
77279;BME280;66332;50.436;15.378;2023-05-10T09:16:56;97926.25;;;17.84;40.74
77279;BME280;66332;50.436;15.378;2023-05-10T09:21:38;97930.19;;;17.82;41.38
77279;BME280;66332;50.436;15.378;2023-05-10T09:26:22;97922.53;;;17.74;39.92
77279;BME280;66332;50.436;15.378;2023-05-10T09:31:03;97933.88;;;17.69;41.02
77279;BME280;66332;50.436;15.378;2023-05-10T09:35:44;97947.16;;;17.46;42.03
77279;BME280;66332;50.436;15.378;2023-05-10T09:40:29;97936.94;;;18.25;40.23
77279;BME280;66332;50.436;15.378;2023-05-10T09:45:10;97917.78;;;17.99;41.20
77279;BME280;66332;50.436;15.378;2023-05-10T09:49:53;97939.16;;;18.16;40.71
77279;BME280;66332;50.436;15.378;2023-05-10T09:54:36;97905.72;;;18.49;38.83
77279;BME280;66332;50.436;15.378;2023-05-10T09:59:18;97933.09;;;18.90;39.47
77279;BME280;66332;50.436;15.378;2023-05-10T10:03:58;97923.41;;;18.55;39.44
77279;BME280;66332;50.436;15.378;2023-05-10T10:08:39;97910.91;;;18.27;39.56
77279;BME280;66332;50.436;15.378;2023-05-10T10:13:20;97913.91;;;19.21;37.37
77279;BME280;66332;50.436;15.378;2023-05-10T10:18:01;97926.69;;;18.74;38.10
77279;BME280;66332;50.436;15.378;2023-05-10T10:22:44;97922.38;;;18.85;38.52
77279;BME280;66332;50.436;15.378;2023-05-10T10:37:47;97924.78;;;18.86;38.49
77279;BME280;66332;50.436;15.378;2023-05-10T10:42:46;97926.00;;;19.46;37.08
77279;BME280;66332;50.436;15.378;2023-05-10T10:47:28;97913.69;;;18.49;38.98
77279;BME280;66332;50.436;15.378;2023-05-10T10:52:32;97930.78;;;18.36;40.32
77279;BME280;66332;50.436;15.378;2023-05-10T10:57:14;97923.88;;;18.23;40.13
77279;BME280;66332;50.436;15.378;2023-05-10T11:01:55;97923.41;;;18.55;39.47
77279;BME280;66332;50.436;15.378;2023-05-10T11:06:36;97912.59;;;19.58;38.13
77279;BME280;66332;50.436;15.378;2023-05-10T11:11:17;97920.06;;;19.05;38.90
77279;BME280;66332;50.436;15.378;2023-05-10T11:16:09;97920.72;;;18.84;41.45
77279;BME280;66332;50.436;15.378;2023-05-10T11:21:00;97917.34;;;18.31;41.18
77279;BME280;66332;50.436;15.378;2023-05-10T11:25:48;97916.50;;;18.71;41.98
77279;BME280;66332;50.436;15.378;2023-05-10T11:30:29;97910.34;;;18.82;39.26
77279;BME280;66332;50.436;15.378;2023-05-10T11:35:11;97914.53;;;18.38;41.67
77279;BME280;66332;50.436;15.378;2023-05-10T11:39:54;97924.19;;;18.27;42.09
77279;BME280;66332;50.436;15.378;2023-05-10T11:44:35;97919.66;;;18.39;40.29
77279;BME280;66332;50.436;15.378;2023-05-10T11:49:16;97919.81;;;18.49;41.27
77279;BME280;66332;50.436;15.378;2023-05-10T11:53:57;97910.16;;;18.31;42.59
77279;BME280;66332;50.436;15.378;2023-05-10T11:58:38;97921.78;;;18.14;42.23
77279;BME280;66332;50.436;15.378;2023-05-10T12:03:19;97916.06;;;18.62;41.63
77279;BME280;66332;50.436;15.378;2023-05-10T12:08:14;97924.09;;;18.22;42.66
77279;BME280;66332;50.436;15.378;2023-05-10T12:12:56;97938.19;;;18.22;42.59
77279;BME280;66332;50.436;15.378;2023-05-10T12:17:37;97922.66;;;18.02;43.52
77279;BME280;66332;50.436;15.378;2023-05-10T12:22:20;97931.44;;;18.72;41.50
77279;BME280;66332;50.436;15.378;2023-05-10T12:27:05;97938.31;;;18.56;40.65
77279;BME280;66332;50.436;15.378;2023-05-10T12:31:54;97941.19;;;18.26;41.66
77279;BME280;66332;50.436;15.378;2023-05-10T12:36:45;97897.75;;;18.08;41.71
77279;BME280;66332;50.436;15.378;2023-05-10T12:41:36;97951.56;;;18.51;42.04
77279;BME280;66332;50.436;15.378;2023-05-10T12:46:31;97904.22;;;18.13;40.78
77279;BME280;66332;50.436;15.378;2023-05-10T12:51:15;97928.91;;;17.96;41.22
77279;BME280;66332;50.436;15.378;2023-05-10T12:55:59;97944.94;;;18.53;41.29
77279;BME280;66332;50.436;15.378;2023-05-10T13:00:40;97900.56;;;18.02;41.15
77279;BME280;66332;50.436;15.378;2023-05-10T13:05:22;97931.41;;;18.15;42.20
77279;BME280;66332;50.436;15.378;2023-05-10T13:10:03;97945.63;;;18.20;42.21
77279;BME280;66332;50.436;15.378;2023-05-10T13:14:44;97899.25;;;18.45;41.54
77279;BME280;66332;50.436;15.378;2023-05-10T13:19:25;97902.19;;;18.89;40.54
77279;BME280;66332;50.436;15.378;2023-05-10T13:24:07;97935.63;;;19.13;40.88
77279;BME280;66332;50.436;15.378;2023-05-10T13:28:48;97937.25;;;19.48;39.99
77279;BME280;66332;50.436;15.378;2023-05-10T13:33:37;97908.56;;;18.88;40.67
77279;BME280;66332;50.436;15.378;2023-05-10T13:38:18;97894.31;;;18.37;41.88
77279;BME280;66332;50.436;15.378;2023-05-10T13:43:00;97911.03;;;18.20;41.17
77279;BME280;66332;50.436;15.378;2023-05-10T13:47:41;97946.31;;;18.56;41.13
77279;BME280;66332;50.436;15.378;2023-05-10T13:52:45;97900.56;;;18.02;41.05
77279;BME280;66332;50.436;15.378;2023-05-10T13:57:45;97892.56;;;18.42;42.12
77279;BME280;66332;50.436;15.378;2023-05-10T14:07:58;97926.06;;;18.55;41.75
77279;BME280;66332;50.436;15.378;2023-05-10T14:29:33;97895.78;;;18.44;40.47
77279;BME280;66332;50.436;15.378;2023-05-10T14:34:18;97931.56;;;18.08;42.07
77279;BME280;66332;50.436;15.378;2023-05-10T14:39:03;97921.22;;;18.23;42.22
77279;BME280;66332;50.436;15.378;2023-05-10T14:43:48;97884.50;;;17.85;42.06
77279;BME280;66332;50.436;15.378;2023-05-10T14:48:59;97940.47;;;17.90;42.59
77279;BME280;66332;50.436;15.378;2023-05-10T14:53:46;97937.88;;;18.07;42.37
77279;BME280;66332;50.436;15.378;2023-05-10T14:58:38;97893.53;;;17.96;42.54
77279;BME280;66332;50.436;15.378;2023-05-10T15:03:24;97938.91;;;18.29;42.06
77279;BME280;66332;50.436;15.378;2023-05-10T15:08:05;97942.38;;;18.30;41.79
77279;BME280;66332;50.436;15.378;2023-05-10T15:12:46;97939.63;;;18.13;42.80
77279;BME280;66332;50.436;15.378;2023-05-10T15:17:27;97940.38;;;18.37;42.23
77279;BME280;66332;50.436;15.378;2023-05-10T15:22:08;97948.47;;;18.42;42.08
77279;BME280;66332;50.436;15.378;2023-05-10T15:26:49;97940.91;;;18.51;42.34
